sensor_id;sensor_type;location;lat;lon;timestamp;P1;durP1;ratioP1;P2;durP2;ratioP2
30307;SDS011;17114;52.314;8.910;2023-03-16T00:00:32;9.88;;;3.20;;
30307;SDS011;17114;52.314;8.910;2023-03-16T00:03:01;11.57;;;3.70;;
30307;SDS011;17114;52.314;8.910;2023-03-16T00:05:32;9.52;;;3.08;;
30307;SDS011;17114;52.314;8.910;2023-03-16T00:08:05;13.48;;;3.05;;
30307;SDS011;17114;52.314;8.910;2023-03-16T00:10:36;8.02;;;3.50;;
30307;SDS011;17114;52.314;8.910;2023-03-16T00:13:13;6.78;;;3.10;;
30307;SDS011;17114;52.314;8.910;2023-03-16T00:15:50;13.25;;;3.20;;
30307;SDS011;17114;52.314;8.910;2023-03-16T00:18:23;8.60;;;3.20;;
30307;SDS011;17114;52.314;8.910;2023-03-16T00:21:00;14.50;;;4.20;;
30307;SDS011;17114;52.314;8.910;2023-03-16T00:23:32;9.57;;;3.55;;
30307;SDS011;17114;52.314;8.910;2023-03-16T00:26:06;9.95;;;3.15;;
30307;SDS011;17114;52.314;8.910;2023-03-16T00:28:40;9.60;;;3.40;;
30307;SDS011;17114;52.314;8.910;2023-03-16T00:31:09;8.32;;;3.42;;
30307;SDS011;17114;52.314;8.910;2023-03-16T00:33:40;8.15;;;3.25;;
30307;SDS011;17114;52.314;8.910;2023-03-16T00:36:09;11.90;;;3.97;;
30307;SDS011;17114;52.314;8.910;2023-03-16T00:38:40;10.52;;;3.40;;
30307;SDS011;17114;52.314;8.910;2023-03-16T00:41:12;13.57;;;3.77;;
30307;SDS011;17114;52.314;8.910;2023-03-16T00:43:46;13.13;;;3.90;;
30307;SDS011;17114;52.314;8.910;2023-03-16T00:46:15;11.25;;;4.00;;
30307;SDS011;17114;52.314;8.910;2023-03-16T00:48:45;12.73;;;3.83;;
30307;SDS011;17114;52.314;8.910;2023-03-16T00:51:17;10.90;;;3.63;;
30307;SDS011;17114;52.314;8.910;2023-03-16T00:53:45;8.30;;;3.83;;
30307;SDS011;17114;52.314;8.910;2023-03-16T00:56:13;13.27;;;3.50;;
30307;SDS011;17114;52.314;8.910;2023-03-16T00:58:41;7.90;;;3.20;;
30307;SDS011;17114;52.314;8.910;2023-03-16T01:01:12;9.48;;;3.25;;
30307;SDS011;17114;52.314;8.910;2023-03-16T01:03:45;6.68;;;3.70;;
30307;SDS011;17114;52.314;8.910;2023-03-16T01:06:15;9.35;;;3.13;;
30307;SDS011;17114;52.314;8.910;2023-03-16T01:08:48;10.32;;;3.80;;
30307;SDS011;17114;52.314;8.910;2023-03-16T01:11:20;8.18;;;3.38;;
30307;SDS011;17114;52.314;8.910;2023-03-16T01:13:54;9.00;;;3.55;;
30307;SDS011;17114;52.314;8.910;2023-03-16T01:16:22;7.25;;;3.10;;
30307;SDS011;17114;52.314;8.910;2023-03-16T01:18:51;14.25;;;4.43;;
30307;SDS011;17114;52.314;8.910;2023-03-16T01:21:20;8.07;;;3.83;;
30307;SDS011;17114;52.314;8.910;2023-03-16T01:23:51;8.63;;;3.60;;
30307;SDS011;17114;52.314;8.910;2023-03-16T01:26:25;8.77;;;2.97;;
30307;SDS011;17114;52.314;8.910;2023-03-16T01:29:00;7.80;;;2.85;;
30307;SDS011;17114;52.314;8.910;2023-03-16T01:31:28;12.73;;;4.05;;
30307;SDS011;17114;52.314;8.910;2023-03-16T01:33:58;10.02;;;3.58;;
30307;SDS011;17114;52.314;8.910;2023-03-16T01:36:26;7.50;;;3.40;;
30307;SDS011;17114;52.314;8.910;2023-03-16T01:38:53;11.43;;;3.50;;
30307;SDS011;17114;52.314;8.910;2023-03-16T01:41:20;10.73;;;3.50;;
30307;SDS011;17114;52.314;8.910;2023-03-16T01:43:48;7.40;;;3.38;;
30307;SDS011;17114;52.314;8.910;2023-03-16T01:46:18;9.48;;;3.55;;
30307;SDS011;17114;52.314;8.910;2023-03-16T01:48:51;10.88;;;3.22;;
30307;SDS011;17114;52.314;8.910;2023-03-16T01:51:33;10.07;;;3.63;;
30307;SDS011;17114;52.314;8.910;2023-03-16T01:56:56;6.93;;;2.85;;
30307;SDS011;17114;52.314;8.910;2023-03-16T01:59:37;11.73;;;3.25;;
30307;SDS011;17114;52.314;8.910;2023-03-16T02:02:40;6.25;;;2.72;;
30307;SDS011;17114;52.314;8.910;2023-03-16T02:05:14;8.90;;;3.58;;
30307;SDS011;17114;52.314;8.910;2023-03-16T02:07:49;9.30;;;3.05;;
30307;SDS011;17114;52.314;8.910;2023-03-16T02:10:24;6.63;;;3.15;;
30307;SDS011;17114;52.314;8.910;2023-03-16T02:12:54;5.65;;;3.28;;
30307;SDS011;17114;52.314;8.910;2023-03-16T02:15:23;10.95;;;3.00;;
30307;SDS011;17114;52.314;8.910;2023-03-16T02:17:51;10.07;;;3.00;;
30307;SDS011;17114;52.314;8.910;2023-03-16T02:23:02;8.63;;;2.95;;
30307;SDS011;17114;52.314;8.910;2023-03-16T02:25:38;10.73;;;3.25;;
30307;SDS011;17114;52.314;8.910;2023-03-16T02:31:10;9.88;;;3.42;;
30307;SDS011;17114;52.314;8.910;2023-03-16T02:33:42;11.32;;;3.20;;
30307;SDS011;17114;52.314;8.910;2023-03-16T02:36:13;13.20;;;3.17;;
30307;SDS011;17114;52.314;8.910;2023-03-16T02:38:41;10.07;;;3.85;;
30307;SDS011;17114;52.314;8.910;2023-03-16T02:41:17;8.05;;;3.60;;
30307;SDS011;17114;52.314;8.910;2023-03-16T02:43:50;9.00;;;3.42;;
30307;SDS011;17114;52.314;8.910;2023-03-16T02:46:24;10.65;;;3.35;;
30307;SDS011;17114;52.314;8.910;2023-03-16T02:48:58;8.57;;;3.10;;
30307;SDS011;17114;52.314;8.910;2023-03-16T02:51:33;9.25;;;2.97;;
30307;SDS011;17114;52.314;8.910;2023-03-16T02:54:01;13.18;;;3.65;;
30307;SDS011;17114;52.314;8.910;2023-03-16T02:56:28;11.82;;;3.15;;
30307;SDS011;17114;52.314;8.910;2023-03-16T02:58:56;13.88;;;3.80;;
30307;SDS011;17114;52.314;8.910;2023-03-16T03:01:23;7.93;;;2.92;;
30307;SDS011;17114;52.314;8.910;2023-03-16T03:03:51;10.57;;;2.92;;
30307;SDS011;17114;52.314;8.910;2023-03-16T03:06:18;12.55;;;3.08;;
30307;SDS011;17114;52.314;8.910;2023-03-16T03:08:52;5.93;;;3.30;;
30307;SDS011;17114;52.314;8.910;2023-03-16T03:11:23;6.60;;;2.80;;
30307;SDS011;17114;52.314;8.910;2023-03-16T03:13:51;9.35;;;2.72;;
30307;SDS011;17114;52.314;8.910;2023-03-16T03:16:21;6.82;;;3.28;;
30307;SDS011;17114;52.314;8.910;2023-03-16T03:18:49;10.10;;;2.97;;
30307;SDS011;17114;52.314;8.910;2023-03-16T03:21:18;7.88;;;2.90;;
30307;SDS011;17114;52.314;8.910;2023-03-16T03:23:45;9.25;;;3.00;;
30307;SDS011;17114;52.314;8.910;2023-03-16T03:26:13;9.73;;;3.25;;
30307;SDS011;17114;52.314;8.910;2023-03-16T03:28:41;13.68;;;2.75;;
30307;SDS011;17114;52.314;8.910;2023-03-16T03:31:13;8.80;;;3.28;;
30307;SDS011;17114;52.314;8.910;2023-03-16T03:33:48;5.68;;;2.78;;
30307;SDS011;17114;52.314;8.910;2023-03-16T03:36:19;5.82;;;2.85;;
30307;SDS011;17114;52.314;8.910;2023-03-16T03:38:47;9.15;;;3.17;;
30307;SDS011;17114;52.314;8.910;2023-03-16T03:41:20;9.93;;;3.28;;
30307;SDS011;17114;52.314;8.910;2023-03-16T03:43:47;8.77;;;3.00;;
30307;SDS011;17114;52.314;8.910;2023-03-16T03:46:15;10.40;;;3.00;;
30307;SDS011;17114;52.314;8.910;2023-03-16T03:48:45;6.30;;;2.88;;
30307;SDS011;17114;52.314;8.910;2023-03-16T03:51:12;9.57;;;3.20;;
30307;SDS011;17114;52.314;8.910;2023-03-16T03:53:39;6.38;;;2.92;;
30307;SDS011;17114;52.314;8.910;2023-03-16T03:56:06;8.15;;;2.95;;
30307;SDS011;17114;52.314;8.910;2023-03-16T03:58:34;11.82;;;3.33;;
30307;SDS011;17114;52.314;8.910;2023-03-16T04:01:05;6.55;;;3.13;;
30307;SDS011;17114;52.314;8.910;2023-03-16T04:03:32;7.95;;;2.97;;
30307;SDS011;17114;52.314;8.910;2023-03-16T04:05:59;7.20;;;2.95;;
30307;SDS011;17114;52.314;8.910;2023-03-16T04:08:27;7.18;;;3.50;;
30307;SDS011;17114;52.314;8.910;2023-03-16T04:10:55;7.32;;;2.65;;
30307;SDS011;17114;52.314;8.910;2023-03-16T04:13:25;8.60;;;2.90;;
30307;SDS011;17114;52.314;8.910;2023-03-16T04:15:59;6.88;;;2.85;;
30307;SDS011;17114;52.314;8.910;2023-03-16T04:18:30;9.43;;;3.40;;
30307;SDS011;17114;52.314;8.910;2023-03-16T04:21:04;8.77;;;3.00;;
30307;SDS011;17114;52.314;8.910;2023-03-16T04:23:33;7.95;;;3.10;;
30307;SDS011;17114;52.314;8.910;2023-03-16T04:26:01;7.30;;;2.95;;
30307;SDS011;17114;52.314;8.910;2023-03-16T04:28:31;8.63;;;3.17;;
30307;SDS011;17114;52.314;8.910;2023-03-16T04:31:01;12.15;;;3.75;;
30307;SDS011;17114;52.314;8.910;2023-03-16T04:33:36;9.63;;;3.25;;
30307;SDS011;17114;52.314;8.910;2023-03-16T04:36:08;6.45;;;2.50;;
30307;SDS011;17114;52.314;8.910;2023-03-16T04:38:35;7.03;;;2.78;;
30307;SDS011;17114;52.314;8.910;2023-03-16T04:41:04;8.27;;;2.83;;
30307;SDS011;17114;52.314;8.910;2023-03-16T04:43:32;8.45;;;3.40;;
30307;SDS011;17114;52.314;8.910;2023-03-16T04:46:04;14.70;;;3.10;;
30307;SDS011;17114;52.314;8.910;2023-03-16T04:48:32;9.02;;;3.30;;
30307;SDS011;17114;52.314;8.910;2023-03-16T04:50:59;11.15;;;3.00;;
30307;SDS011;17114;52.314;8.910;2023-03-16T04:53:27;10.55;;;3.30;;
30307;SDS011;17114;52.314;8.910;2023-03-16T04:55:55;8.43;;;3.00;;
30307;SDS011;17114;52.314;8.910;2023-03-16T04:58:22;8.27;;;3.47;;
30307;SDS011;17114;52.314;8.910;2023-03-16T05:00:51;5.90;;;2.97;;
30307;SDS011;17114;52.314;8.910;2023-03-16T05:03:18;10.18;;;3.20;;
30307;SDS011;17114;52.314;8.910;2023-03-16T05:05:46;8.75;;;3.42;;
30307;SDS011;17114;52.314;8.910;2023-03-16T05:08:14;8.45;;;3.55;;
30307;SDS011;17114;52.314;8.910;2023-03-16T05:10:41;8.23;;;3.17;;
30307;SDS011;17114;52.314;8.910;2023-03-16T05:13:09;9.05;;;3.47;;
30307;SDS011;17114;52.314;8.910;2023-03-16T05:15:37;12.45;;;4.35;;
30307;SDS011;17114;52.314;8.910;2023-03-16T05:18:04;11.02;;;3.90;;
30307;SDS011;17114;52.314;8.910;2023-03-16T05:20:32;9.05;;;3.40;;
30307;SDS011;17114;52.314;8.910;2023-03-16T05:22:58;7.20;;;3.08;;
30307;SDS011;17114;52.314;8.910;2023-03-16T05:25:25;9.63;;;3.67;;
30307;SDS011;17114;52.314;8.910;2023-03-16T05:27:52;10.98;;;3.65;;
30307;SDS011;17114;52.314;8.910;2023-03-16T05:30:26;9.90;;;3.70;;
30307;SDS011;17114;52.314;8.910;2023-03-16T05:32:54;11.30;;;3.30;;
30307;SDS011;17114;52.314;8.910;2023-03-16T05:35:23;10.23;;;4.03;;
30307;SDS011;17114;52.314;8.910;2023-03-16T05:37:50;8.63;;;3.40;;
30307;SDS011;17114;52.314;8.910;2023-03-16T05:40:20;11.70;;;4.35;;
30307;SDS011;17114;52.314;8.910;2023-03-16T05:42:53;9.55;;;3.90;;
30307;SDS011;17114;52.314;8.910;2023-03-16T05:45:22;10.23;;;3.97;;
30307;SDS011;17114;52.314;8.910;2023-03-16T05:47:49;12.52;;;4.40;;
30307;SDS011;17114;52.314;8.910;2023-03-16T05:50:20;11.90;;;4.25;;
30307;SDS011;17114;52.314;8.910;2023-03-16T05:52:48;9.85;;;3.20;;
30307;SDS011;17114;52.314;8.910;2023-03-16T05:55:16;9.02;;;3.85;;
30307;SDS011;17114;52.314;8.910;2023-03-16T05:57:46;9.77;;;3.47;;
30307;SDS011;17114;52.314;8.910;2023-03-16T06:00:13;8.38;;;3.47;;
30307;SDS011;17114;52.314;8.910;2023-03-16T06:02:43;8.05;;;3.60;;
30307;SDS011;17114;52.314;8.910;2023-03-16T06:05:12;10.43;;;3.65;;
30307;SDS011;17114;52.314;8.910;2023-03-16T06:07:40;9.80;;;3.75;;
30307;SDS011;17114;52.314;8.910;2023-03-16T06:10:09;13.15;;;6.18;;
30307;SDS011;17114;52.314;8.910;2023-03-16T06:12:38;12.30;;;6.07;;
30307;SDS011;17114;52.314;8.910;2023-03-16T06:15:07;13.43;;;4.32;;
30307;SDS011;17114;52.314;8.910;2023-03-16T06:17:37;17.50;;;4.47;;
30307;SDS011;17114;52.314;8.910;2023-03-16T06:20:05;8.27;;;5.20;;
30307;SDS011;17114;52.314;8.910;2023-03-16T06:22:37;11.18;;;3.95;;
30307;SDS011;17114;52.314;8.910;2023-03-16T06:25:06;7.30;;;3.70;;
30307;SDS011;17114;52.314;8.910;2023-03-16T06:27:35;8.88;;;3.50;;
30307;SDS011;17114;52.314;8.910;2023-03-16T06:30:02;7.38;;;3.88;;
30307;SDS011;17114;52.314;8.910;2023-03-16T06:32:31;9.25;;;3.83;;
30307;SDS011;17114;52.314;8.910;2023-03-16T06:34:59;11.13;;;3.83;;
30307;SDS011;17114;52.314;8.910;2023-03-16T06:37:29;10.00;;;3.60;;
30307;SDS011;17114;52.314;8.910;2023-03-16T06:39:59;8.57;;;3.53;;
30307;SDS011;17114;52.314;8.910;2023-03-16T06:42:27;6.93;;;3.63;;
30307;SDS011;17114;52.314;8.910;2023-03-16T06:44:54;9.85;;;3.50;;
30307;SDS011;17114;52.314;8.910;2023-03-16T06:47:22;12.48;;;3.55;;
30307;SDS011;17114;52.314;8.910;2023-03-16T06:49:49;9.32;;;3.97;;
30307;SDS011;17114;52.314;8.910;2023-03-16T06:52:17;7.82;;;3.70;;
30307;SDS011;17114;52.314;8.910;2023-03-16T06:54:44;14.88;;;4.50;;
30307;SDS011;17114;52.314;8.910;2023-03-16T06:57:11;11.60;;;3.85;;
30307;SDS011;17114;52.314;8.910;2023-03-16T06:59:39;11.05;;;3.95;;
30307;SDS011;17114;52.314;8.910;2023-03-16T07:02:08;9.43;;;4.15;;
30307;SDS011;17114;52.314;8.910;2023-03-16T07:04:39;10.30;;;4.30;;
30307;SDS011;17114;52.314;8.910;2023-03-16T07:07:07;10.52;;;4.25;;
30307;SDS011;17114;52.314;8.910;2023-03-16T07:09:35;12.18;;;3.85;;
30307;SDS011;17114;52.314;8.910;2023-03-16T07:12:06;10.35;;;4.82;;
30307;SDS011;17114;52.314;8.910;2023-03-16T07:14:35;7.25;;;3.80;;
30307;SDS011;17114;52.314;8.910;2023-03-16T07:17:06;11.35;;;3.80;;
30307;SDS011;17114;52.314;8.910;2023-03-16T07:19:34;7.72;;;3.65;;
30307;SDS011;17114;52.314;8.910;2023-03-16T07:22:01;11.07;;;4.10;;
30307;SDS011;17114;52.314;8.910;2023-03-16T07:24:29;10.45;;;4.07;;
30307;SDS011;17114;52.314;8.910;2023-03-16T07:26:56;8.77;;;3.70;;
30307;SDS011;17114;52.314;8.910;2023-03-16T07:29:25;10.15;;;3.50;;
30307;SDS011;17114;52.314;8.910;2023-03-16T07:31:53;9.70;;;3.47;;
30307;SDS011;17114;52.314;8.910;2023-03-16T07:34:22;9.93;;;4.65;;
30307;SDS011;17114;52.314;8.910;2023-03-16T07:36:50;10.30;;;4.13;;
30307;SDS011;17114;52.314;8.910;2023-03-16T07:39:18;8.23;;;3.80;;
30307;SDS011;17114;52.314;8.910;2023-03-16T07:41:47;7.88;;;4.15;;
30307;SDS011;17114;52.314;8.910;2023-03-16T07:44:14;5.97;;;2.88;;
30307;SDS011;17114;52.314;8.910;2023-03-16T07:46:41;9.55;;;3.80;;
30307;SDS011;17114;52.314;8.910;2023-03-16T07:49:08;11.07;;;3.95;;
30307;SDS011;17114;52.314;8.910;2023-03-16T07:51:36;10.20;;;3.55;;
30307;SDS011;17114;52.314;8.910;2023-03-16T07:54:03;9.73;;;4.10;;
30307;SDS011;17114;52.314;8.910;2023-03-16T07:56:30;7.60;;;3.03;;
30307;SDS011;17114;52.314;8.910;2023-03-16T07:59:13;9.63;;;3.03;;
30307;SDS011;17114;52.314;8.910;2023-03-16T08:01:40;7.30;;;3.00;;
30307;SDS011;17114;52.314;8.910;2023-03-16T08:04:08;12.52;;;3.47;;
30307;SDS011;17114;52.314;8.910;2023-03-16T08:06:37;6.25;;;3.10;;
30307;SDS011;17114;52.314;8.910;2023-03-16T08:09:04;8.73;;;2.92;;
30307;SDS011;17114;52.314;8.910;2023-03-16T08:11:31;11.25;;;3.55;;
30307;SDS011;17114;52.314;8.910;2023-03-16T08:13:58;9.70;;;3.67;;
30307;SDS011;17114;52.314;8.910;2023-03-16T08:16:26;9.23;;;2.92;;
30307;SDS011;17114;52.314;8.910;2023-03-16T08:18:57;5.07;;;2.88;;
30307;SDS011;17114;52.314;8.910;2023-03-16T08:21:25;6.05;;;3.08;;
30307;SDS011;17114;52.314;8.910;2023-03-16T08:23:53;6.88;;;2.92;;
30307;SDS011;17114;52.314;8.910;2023-03-16T08:26:21;5.07;;;2.60;;
30307;SDS011;17114;52.314;8.910;2023-03-16T08:28:49;6.35;;;2.90;;
30307;SDS011;17114;52.314;8.910;2023-03-16T08:31:18;8.27;;;3.22;;
30307;SDS011;17114;52.314;8.910;2023-03-16T08:33:47;5.55;;;2.50;;
30307;SDS011;17114;52.314;8.910;2023-03-16T08:36:15;5.97;;;2.58;;
30307;SDS011;17114;52.314;8.910;2023-03-16T08:38:43;9.90;;;3.05;;
30307;SDS011;17114;52.314;8.910;2023-03-16T08:41:31;7.30;;;2.92;;
30307;SDS011;17114;52.314;8.910;2023-03-16T08:44:00;6.82;;;2.75;;
30307;SDS011;17114;52.314;8.910;2023-03-16T08:46:28;7.53;;;2.60;;
30307;SDS011;17114;52.314;8.910;2023-03-16T08:48:56;7.00;;;2.95;;
30307;SDS011;17114;52.314;8.910;2023-03-16T08:51:23;6.78;;;3.03;;
30307;SDS011;17114;52.314;8.910;2023-03-16T08:53:50;5.32;;;2.67;;
30307;SDS011;17114;52.314;8.910;2023-03-16T08:56:18;8.27;;;2.63;;
30307;SDS011;17114;52.314;8.910;2023-03-16T08:58:45;5.55;;;2.67;;
30307;SDS011;17114;52.314;8.910;2023-03-16T09:01:13;5.22;;;2.45;;
30307;SDS011;17114;52.314;8.910;2023-03-16T09:03:42;7.00;;;2.50;;
30307;SDS011;17114;52.314;8.910;2023-03-16T09:06:13;7.20;;;2.70;;
30307;SDS011;17114;52.314;8.910;2023-03-16T09:08:42;5.90;;;2.85;;
30307;SDS011;17114;52.314;8.910;2023-03-16T09:11:11;5.47;;;2.80;;
30307;SDS011;17114;52.314;8.910;2023-03-16T09:13:40;8.95;;;2.85;;
30307;SDS011;17114;52.314;8.910;2023-03-16T09:16:08;6.18;;;3.17;;
30307;SDS011;17114;52.314;8.910;2023-03-16T09:18:37;6.47;;;2.92;;
30307;SDS011;17114;52.314;8.910;2023-03-16T09:21:06;6.85;;;2.78;;
30307;SDS011;17114;52.314;8.910;2023-03-16T09:23:35;9.13;;;3.25;;
30307;SDS011;17114;52.314;8.910;2023-03-16T09:26:07;10.07;;;5.93;;
30307;SDS011;17114;52.314;8.910;2023-03-16T09:28:38;20.25;;;9.75;;
30307;SDS011;17114;52.314;8.910;2023-03-16T09:31:08;6.85;;;3.00;;
30307;SDS011;17114;52.314;8.910;2023-03-16T09:33:40;6.50;;;3.15;;
30307;SDS011;17114;52.314;8.910;2023-03-16T09:36:08;4.32;;;2.53;;
30307;SDS011;17114;52.314;8.910;2023-03-16T09:38:37;6.30;;;2.63;;
30307;SDS011;17114;52.314;8.910;2023-03-16T09:41:09;5.38;;;2.45;;
30307;SDS011;17114;52.314;8.910;2023-03-16T09:44:32;7.72;;;2.80;;
30307;SDS011;17114;52.314;8.910;2023-03-16T09:46:43;6.18;;;2.58;;
30307;SDS011;17114;52.314;8.910;2023-03-16T09:49:15;5.93;;;2.47;;
30307;SDS011;17114;52.314;8.910;2023-03-16T09:54:19;7.32;;;2.47;;
30307;SDS011;17114;52.314;8.910;2023-03-16T09:57:07;5.38;;;2.53;;
30307;SDS011;17114;52.314;8.910;2023-03-16T09:59:48;5.85;;;2.33;;
30307;SDS011;17114;52.314;8.910;2023-03-16T10:05:06;3.97;;;2.22;;
30307;SDS011;17114;52.314;8.910;2023-03-16T10:10:40;4.45;;;2.10;;
30307;SDS011;17114;52.314;8.910;2023-03-16T10:13:26;5.78;;;2.22;;
30307;SDS011;17114;52.314;8.910;2023-03-16T10:16:08;4.32;;;2.45;;
30307;SDS011;17114;52.314;8.910;2023-03-16T10:18:44;7.20;;;2.42;;
30307;SDS011;17114;52.314;8.910;2023-03-16T10:21:14;8.70;;;2.78;;
30307;SDS011;17114;52.314;8.910;2023-03-16T10:23:44;4.78;;;2.35;;
30307;SDS011;17114;52.314;8.910;2023-03-16T10:26:21;4.78;;;2.22;;
30307;SDS011;17114;52.314;8.910;2023-03-16T10:28:55;3.97;;;2.42;;
30307;SDS011;17114;52.314;8.910;2023-03-16T10:31:23;6.15;;;2.47;;
30307;SDS011;17114;52.314;8.910;2023-03-16T10:33:51;5.10;;;2.35;;
30307;SDS011;17114;52.314;8.910;2023-03-16T10:36:28;4.35;;;2.00;;
30307;SDS011;17114;52.314;8.910;2023-03-16T10:39:01;4.50;;;2.35;;
30307;SDS011;17114;52.314;8.910;2023-03-16T10:41:31;5.57;;;2.75;;
30307;SDS011;17114;52.314;8.910;2023-03-16T10:46:42;6.03;;;2.72;;
30307;SDS011;17114;52.314;8.910;2023-03-16T10:49:24;6.28;;;2.10;;
30307;SDS011;17114;52.314;8.910;2023-03-16T10:51:54;3.40;;;2.40;;
30307;SDS011;17114;52.314;8.910;2023-03-16T10:54:27;5.97;;;2.00;;
30307;SDS011;17114;52.314;8.910;2023-03-16T10:57:29;6.38;;;2.40;;
30307;SDS011;17114;52.314;8.910;2023-03-16T11:00:06;3.92;;;2.10;;
30307;SDS011;17114;52.314;8.910;2023-03-16T11:02:40;5.55;;;2.55;;
30307;SDS011;17114;52.314;8.910;2023-03-16T11:05:12;4.95;;;2.50;;
30307;SDS011;17114;52.314;8.910;2023-03-16T11:08:01;7.10;;;2.88;;
30307;SDS011;17114;52.314;8.910;2023-03-16T11:10:40;4.82;;;2.28;;
30307;SDS011;17114;52.314;8.910;2023-03-16T11:13:24;6.35;;;3.20;;
30307;SDS011;17114;52.314;8.910;2023-03-16T11:16:23;4.97;;;2.30;;
30307;SDS011;17114;52.314;8.910;2023-03-16T11:18:57;4.50;;;2.40;;
30307;SDS011;17114;52.314;8.910;2023-03-16T11:24:17;4.03;;;2.55;;
30307;SDS011;17114;52.314;8.910;2023-03-16T11:27:05;5.60;;;2.63;;
30307;SDS011;17114;52.314;8.910;2023-03-16T11:29:50;4.38;;;2.20;;
30307;SDS011;17114;52.314;8.910;2023-03-16T11:32:38;10.25;;;4.80;;
30307;SDS011;17114;52.314;8.910;2023-03-16T11:35:17;5.18;;;2.72;;
30307;SDS011;17114;52.314;8.910;2023-03-16T11:41:08;6.97;;;2.33;;
30307;SDS011;17114;52.314;8.910;2023-03-16T11:46:22;5.22;;;2.22;;
30307;SDS011;17114;52.314;8.910;2023-03-16T11:54:32;5.53;;;2.38;;
30307;SDS011;17114;52.314;8.910;2023-03-16T11:57:06;4.60;;;2.60;;
30307;SDS011;17114;52.314;8.910;2023-03-16T12:00:02;3.70;;;2.38;;
30307;SDS011;17114;52.314;8.910;2023-03-16T12:07:52;5.03;;;2.80;;
30307;SDS011;17114;52.314;8.910;2023-03-16T12:11:02;5.00;;;2.63;;
30307;SDS011;17114;52.314;8.910;2023-03-16T12:16:24;5.15;;;2.38;;
30307;SDS011;17114;52.314;8.910;2023-03-16T12:19:15;4.82;;;2.50;;
30307;SDS011;17114;52.314;8.910;2023-03-16T12:24:49;9.15;;;2.88;;
30307;SDS011;17114;52.314;8.910;2023-03-16T12:27:17;5.15;;;2.70;;
30307;SDS011;17114;52.314;8.910;2023-03-16T12:29:52;5.67;;;3.07;;
30307;SDS011;17114;52.314;8.910;2023-03-16T12:32:38;4.72;;;2.67;;
30307;SDS011;17114;52.314;8.910;2023-03-16T12:40:54;6.07;;;2.60;;
30307;SDS011;17114;52.314;8.910;2023-03-16T12:49:01;5.53;;;3.22;;
30307;SDS011;17114;52.314;8.910;2023-03-16T12:51:32;4.47;;;2.80;;
30307;SDS011;17114;52.314;8.910;2023-03-16T12:54:01;4.97;;;2.85;;
30307;SDS011;17114;52.314;8.910;2023-03-16T12:56:36;7.15;;;3.67;;
30307;SDS011;17114;52.314;8.910;2023-03-16T12:59:20;5.97;;;3.33;;
30307;SDS011;17114;52.314;8.910;2023-03-16T13:01:50;6.50;;;3.22;;
30307;SDS011;17114;52.314;8.910;2023-03-16T13:04:28;6.85;;;3.20;;
30307;SDS011;17114;52.314;8.910;2023-03-16T13:07:03;7.25;;;3.17;;
30307;SDS011;17114;52.314;8.910;2023-03-16T13:09:30;5.63;;;2.83;;
30307;SDS011;17114;52.314;8.910;2023-03-16T13:12:00;6.18;;;3.30;;
30307;SDS011;17114;52.314;8.910;2023-03-16T13:17:05;4.55;;;3.08;;
30307;SDS011;17114;52.314;8.910;2023-03-16T13:19:42;6.38;;;3.20;;
30307;SDS011;17114;52.314;8.910;2023-03-16T13:24:49;6.07;;;3.10;;
30307;SDS011;17114;52.314;8.910;2023-03-16T13:27:25;7.53;;;3.45;;
30307;SDS011;17114;52.314;8.910;2023-03-16T13:29:59;6.72;;;3.30;;
30307;SDS011;17114;52.314;8.910;2023-03-16T13:35:10;4.85;;;3.05;;
30307;SDS011;17114;52.314;8.910;2023-03-16T13:37:41;4.30;;;3.03;;
30307;SDS011;17114;52.314;8.910;2023-03-16T13:40:23;5.68;;;3.17;;
30307;SDS011;17114;52.314;8.910;2023-03-16T13:45:27;5.45;;;3.15;;
30307;SDS011;17114;52.314;8.910;2023-03-16T13:47:59;8.88;;;3.00;;
30307;SDS011;17114;52.314;8.910;2023-03-16T13:50:31;7.80;;;3.03;;
30307;SDS011;17114;52.314;8.910;2023-03-16T13:53:01;5.25;;;2.95;;
30307;SDS011;17114;52.314;8.910;2023-03-16T13:55:35;5.55;;;3.08;;
30307;SDS011;17114;52.314;8.910;2023-03-16T13:58:03;5.13;;;3.25;;
30307;SDS011;17114;52.314;8.910;2023-03-16T14:00:35;4.03;;;2.70;;
30307;SDS011;17114;52.314;8.910;2023-03-16T14:03:10;5.70;;;3.00;;
30307;SDS011;17114;52.314;8.910;2023-03-16T14:05:41;5.47;;;2.83;;
30307;SDS011;17114;52.314;8.910;2023-03-16T14:08:15;6.68;;;3.13;;
30307;SDS011;17114;52.314;8.910;2023-03-16T14:10:47;5.80;;;3.05;;
30307;SDS011;17114;52.314;8.910;2023-03-16T14:15:59;5.63;;;3.30;;
30307;SDS011;17114;52.314;8.910;2023-03-16T14:18:43;4.40;;;2.60;;
30307;SDS011;17114;52.314;8.910;2023-03-16T14:21:27;6.70;;;2.88;;
30307;SDS011;17114;52.314;8.910;2023-03-16T14:23:57;5.13;;;2.70;;
30307;SDS011;17114;52.314;8.910;2023-03-16T14:26:46;6.80;;;3.10;;
30307;SDS011;17114;52.314;8.910;2023-03-16T14:29:26;4.88;;;2.30;;
30307;SDS011;17114;52.314;8.910;2023-03-16T14:31:56;3.88;;;2.60;;
30307;SDS011;17114;52.314;8.910;2023-03-16T14:34:27;5.38;;;2.65;;
30307;SDS011;17114;52.314;8.910;2023-03-16T14:37:04;4.53;;;2.70;;
30307;SDS011;17114;52.314;8.910;2023-03-16T14:39:36;5.50;;;2.60;;
30307;SDS011;17114;52.314;8.910;2023-03-16T14:42:10;5.20;;;2.67;;
30307;SDS011;17114;52.314;8.910;2023-03-16T14:44:40;6.10;;;3.00;;
30307;SDS011;17114;52.314;8.910;2023-03-16T14:47:09;5.03;;;2.78;;
30307;SDS011;17114;52.314;8.910;2023-03-16T14:49:51;4.53;;;2.40;;
30307;SDS011;17114;52.314;8.910;2023-03-16T14:52:26;5.20;;;2.85;;
30307;SDS011;17114;52.314;8.910;2023-03-16T14:54:57;5.40;;;2.35;;
30307;SDS011;17114;52.314;8.910;2023-03-16T14:57:28;4.07;;;2.15;;
30307;SDS011;17114;52.314;8.910;2023-03-16T14:59:55;4.57;;;2.50;;
30307;SDS011;17114;52.314;8.910;2023-03-16T15:02:26;4.53;;;2.40;;
30307;SDS011;17114;52.314;8.910;2023-03-16T15:04:56;3.50;;;2.10;;
30307;SDS011;17114;52.314;8.910;2023-03-16T15:07:29;3.65;;;2.10;;
30307;SDS011;17114;52.314;8.910;2023-03-16T15:10:07;3.63;;;2.00;;
30307;SDS011;17114;52.314;8.910;2023-03-16T15:12:42;5.30;;;2.70;;
30307;SDS011;17114;52.314;8.910;2023-03-16T15:15:17;3.30;;;1.90;;
30307;SDS011;17114;52.314;8.910;2023-03-16T15:17:45;3.83;;;1.70;;
30307;SDS011;17114;52.314;8.910;2023-03-16T15:20:15;3.55;;;1.88;;
30307;SDS011;17114;52.314;8.910;2023-03-16T15:22:51;4.72;;;2.00;;
30307;SDS011;17114;52.314;8.910;2023-03-16T15:30:41;2.92;;;1.88;;
30307;SDS011;17114;52.314;8.910;2023-03-16T15:33:10;2.95;;;1.35;;
30307;SDS011;17114;52.314;8.910;2023-03-16T15:35:38;4.57;;;1.80;;
30307;SDS011;17114;52.314;8.910;2023-03-16T15:38:14;2.63;;;1.90;;
30307;SDS011;17114;52.314;8.910;2023-03-16T15:40:45;3.15;;;1.55;;
30307;SDS011;17114;52.314;8.910;2023-03-16T15:43:15;4.78;;;2.00;;
30307;SDS011;17114;52.314;8.910;2023-03-16T15:45:44;3.35;;;2.10;;
30307;SDS011;17114;52.314;8.910;2023-03-16T15:48:12;4.53;;;2.08;;
30307;SDS011;17114;52.314;8.910;2023-03-16T15:50:43;4.57;;;2.00;;
30307;SDS011;17114;52.314;8.910;2023-03-16T15:56:06;5.43;;;2.10;;
30307;SDS011;17114;52.314;8.910;2023-03-16T15:58:36;2.40;;;1.48;;
30307;SDS011;17114;52.314;8.910;2023-03-16T16:01:07;2.75;;;1.60;;
30307;SDS011;17114;52.314;8.910;2023-03-16T16:03:38;3.90;;;1.77;;
30307;SDS011;17114;52.314;8.910;2023-03-16T16:06:08;3.95;;;1.77;;
30307;SDS011;17114;52.314;8.910;2023-03-16T16:08:43;3.92;;;1.80;;
30307;SDS011;17114;52.314;8.910;2023-03-16T16:11:26;4.35;;;2.33;;
30307;SDS011;17114;52.314;8.910;2023-03-16T16:13:54;3.67;;;1.85;;
30307;SDS011;17114;52.314;8.910;2023-03-16T16:16:24;4.20;;;1.80;;
30307;SDS011;17114;52.314;8.910;2023-03-16T16:18:54;4.65;;;1.80;;
30307;SDS011;17114;52.314;8.910;2023-03-16T16:21:26;3.22;;;2.00;;
30307;SDS011;17114;52.314;8.910;2023-03-16T16:23:56;3.33;;;1.88;;
30307;SDS011;17114;52.314;8.910;2023-03-16T16:26:27;5.82;;;1.88;;
30307;SDS011;17114;52.314;8.910;2023-03-16T16:29:16;2.92;;;1.60;;